Keoyoung Blue 3 — HO9294 — position and weather

sailwx.info

Track history (hours):
 
Tides and Currents Weather Stations Pressure Air Temp Water Temp Dewpoint Dewpoint Depression Visibility Wind Speed Wind Dir Waves Ship Positions

Keoyoung Blue 3

Last reported at 2018-Jul-20 13:48 UTC. Time now 2018-Jul-20 16:24 UTC.
Position N 35°34' E 140°04'.

Length 71 m; draft 4.3 m.

Type: Ship (hazmat cat B). MMSI: 370408000.

Date/timePositionNaut miles runAvg speedWind from/ knotsBaromVisibWave heightAir tempDewpointWater temp
2018-Jul-20 13:48N 35°34' E 140°04'0 0.0
2018-Jul-20 13:29N 35°34' E 140°04'0 0.0
2018-Jul-20 12:45N 35°34' E 140°04'0 0.0
2018-Jul-20 12:25N 35°34' E 140°04'0 0.0
2018-Jul-20 12:00N 35°34' E 140°04'2 1.9
2018-Jul-20 11:05N 35°34' E 140°02'110.6
2018-Jul-20 10:59N 35°33' E 140°01'612.4
2018-Jul-20 10:30N 35°31' E 139°55'713.3
2018-Jul-20 10:00N 35°26' E 139°49'612.7
2018-Jul-20 09:30N 35°21' E 139°45'612.1
2018-Jul-20 09:00N 35°15' E 139°47'713.2
2018-Jul-20 08:30N 35°08' E 139°46'612.7
2018-Jul-20 08:00N 35°03' E 139°43'714.1
2018-Jul-20 07:30N 34°58' E 139°36'23211.2
2018-Jul-19 10:50N 33°45' E 135°09'511.9
2018-Jul-19 10:22N 33°49' E 135°04'511.7
2018-Jul-19 09:59N 33°53' E 135°01'612.2
2018-Jul-19 09:28N 33°59' E 135°01'511.6
2018-Jul-19 09:00N 34°05' E 134°60'611.6
2018-Jul-19 08:30N 34°11' E 134°59'713.1
2018-Jul-19 08:00N 34°17' E 134°59'611.6
2018-Jul-19 07:30N 34°23' E 135°00'612.1
2018-Jul-19 07:00N 34°28' E 135°03'611.8
2018-Jul-19 06:30N 34°34' E 135°06'510.3
2018-Jul-19 06:00N 34°38' E 135°08'0 0.1
2018-Jul-19 05:25N 34°39' E 135°08'0 0.0
2018-Jul-19 04:49N 34°39' E 135°08'0 0.0
2018-Jul-19 04:25N 34°39' E 135°08'0 0.0
2018-Jul-19 03:55N 34°39' E 135°08'0 0.0
2018-Jul-19 03:25N 34°39' E 135°08'0 0.0
2018-Jul-19 03:00N 34°39' E 135°08'0 0.3
2018-Jul-19 02:30N 34°38' E 135°08'1 2.6
2018-Jul-19 02:01N 34°37' E 135°08'4 8.2
2018-Jul-19 01:31N 34°34' E 135°05'2 4.6
2018-Jul-19 01:01N 34°33' E 135°07'1 2.0
2018-Jul-19 00:31N 34°34' E 135°07'713.1
2018-Jul-18 23:59N 34°37' E 134°60'712.6
2018-Jul-18 23:27N 34°34' E 134°53'511.0
2018-Jul-18 23:00N 34°32' E 134°47'510.5
2018-Jul-18 22:30N 34°30' E 134°41'612.9
2018-Jul-18 22:00N 34°28' E 134°34'713.2
2018-Jul-18 21:30N 34°25' E 134°27'713.1
2018-Jul-18 21:00N 34°24' E 134°19'  
2018-Jul-15 21:15N 34°59' E 129°26'  
2018-Jul-13 04:24N 34°52' E 139°20'3 7.8
2018-Jul-13 03:57N 34°54' E 139°23'3 8.0
2018-Jul-13 03:31N 34°56' E 139°27'4 8.8
2018-Jul-13 03:00N 34°59' E 139°31'510.3
2018-Jul-13 02:31N 35°02' E 139°36'611.3
2018-Jul-13 02:00N 35°07' E 139°41'612.8
2018-Jul-13 01:31N 35°11' E 139°45'611.8
2018-Jul-13 01:01N 35°17' E 139°45'611.4
2018-Jul-13 00:31N 35°23' E 139°42'612.2
2018-Jul-13 00:01N 35°27' E 139°47'4 7.2
2018-Jul-12 23:31N 35°31' E 139°46'1 1.6
2018-Jul-12 22:59N 35°31' E 139°45'0 0.0
2018-Jul-12 22:23N 35°31' E 139°45'0 0.0
2018-Jul-12 20:23N 35°31' E 139°45'0 0.0
2018-Jul-12 16:47N 35°31' E 139°45'0 0.0
2018-Jul-12 13:59N 35°31' E 139°45'0 0.0
2018-Jul-12 11:05N 35°31' E 139°45'0 0.0
2018-Jul-12 10:47N 35°31' E 139°45'0 0.0
2018-Jul-12 03:39N 35°31' E 139°45'0 0.8
2018-Jul-12 03:30N 35°31' E 139°45'2 3.4
2018-Jul-12 03:00N 35°30' E 139°43'2 4.8
2018-Jul-12 02:31N 35°28' E 139°45'1 2.4
2018-Jul-12 01:55N 35°29' E 139°46'0 0.0
2018-Jul-12 01:28N 35°29' E 139°46'0 0.0
2018-Jul-12 00:58N 35°29' E 139°46'0 0.0
2018-Jul-12 00:25N 35°29' E 139°46'0 0.0
2018-Jul-11 23:58N 35°29' E 139°46'0 0.0
2018-Jul-11 23:28N 35°29' E 139°46'0 0.0
2018-Jul-11 22:58N 35°29' E 139°46'0 0.0
2018-Jul-11 22:28N 35°29' E 139°46'0 0.0
2018-Jul-11 21:55N 35°29' E 139°46'0 0.0
2018-Jul-11 21:28N 35°29' E 139°46'0 0.0
2018-Jul-11 20:58N 35°29' E 139°46'0 0.0
2018-Jul-11 20:28N 35°29' E 139°46'0 0.0
2018-Jul-11 19:58N 35°29' E 139°46'0 0.0
2018-Jul-11 19:28N 35°29' E 139°46'0 1.0
2018-Jul-11 19:00N 35°29' E 139°47'4 7.4
2018-Jul-11 18:30N 35°25' E 139°47'510.5
2018-Jul-11 18:00N 35°20' E 139°44'611.8
2018-Jul-11 17:30N 35°15' E 139°47'612.6
2018-Jul-11 17:00N 35°08' E 139°47'612.1
2018-Jul-11 16:30N 35°02' E 139°44'610.9
2018-Jul-11 15:59N 34°57' E 139°44'510.8
2018-Jul-11 15:30N 34°52' E 139°46'6 1.1
2018-Jul-11 09:55N 34°46' E 139°45'614.5
2018-Jul-11 09:31N 34°51' E 139°44'814.6
2018-Jul-11 09:00N 34°58' E 139°41'612.3
2018-Jul-11 08:31N 35°04' E 139°42'612.6
2018-Jul-11 08:01N 35°10' E 139°45'612.0
2018-Jul-11 07:31N 35°16' E 139°46'611.9
2018-Jul-11 07:01N 35°21' E 139°42'611.1
2018-Jul-11 06:31N 35°26' E 139°46'4 8.6
2018-Jul-11 06:00N 35°30' E 139°47'2 3.3
2018-Jul-11 05:30N 35°31' E 139°46'0 0.0
2018-Jul-10 23:46N 35°31' E 139°46'0 0.2
2018-Jul-10 23:30N 35°32' E 139°46'3 6.5
2018-Jul-10 23:00N 35°29' E 139°43'2 3.3
2018-Jul-10 22:29N 35°28' E 139°44'0 0.1
2018-Jul-10 21:56N 35°28' E 139°44'0 0.0
2018-Jul-10 21:29N 35°28' E 139°44'0 0.0
2018-Jul-10 20:59N 35°28' E 139°44'0 0.0
2018-Jul-10 20:29N 35°28' E 139°44'0 0.0
2018-Jul-10 19:59N 35°28' E 139°44'0 0.0
2018-Jul-10 19:29N 35°28' E 139°44'0 0.1
2018-Jul-10 18:59N 35°28' E 139°44'0 0.1
2018-Jul-10 18:29N 35°28' E 139°44'0 0.0
2018-Jul-10 17:59N 35°28' E 139°44'0 0.1
2018-Jul-10 17:29N 35°28' E 139°44'0 0.0
2018-Jul-10 16:59N 35°28' E 139°44'0 0.0
2018-Jul-10 16:30N 35°28' E 139°44'0 0.1
2018-Jul-10 16:00N 35°28' E 139°44'0 0.1
2018-Jul-10 15:31N 35°28' E 139°44'0 0.0
2018-Jul-10 15:01N 35°28' E 139°44'0 0.2
2018-Jul-10 14:31N 35°28' E 139°44'4 7.2
2018-Jul-10 14:00N 35°26' E 139°47'  
Track history (hours):
 
Tides and Currents Weather Stations Pressure Air Temp Water Temp Dewpoint Dewpoint Depression Visibility Wind Speed Wind Dir Waves Ship Positions

Keoyoung Blue 3

Last reported at 2018-Jul-20 13:48 UTC. Time now 2018-Jul-20 16:24 UTC.
Position N 35°34' E 140°04'.

Length 71 m; draft 4.3 m.

Type: Ship (hazmat cat B). MMSI: 370408000.

Date/timePositionNaut miles runAvg speedWind from/ knotsBaromVisibWave heightAir tempDewpointWater temp
2018-Jul-20 13:48N 35°34' E 140°04'0 0.0
2018-Jul-20 13:29N 35°34' E 140°04'0 0.0
2018-Jul-20 12:45N 35°34' E 140°04'0 0.0
2018-Jul-20 12:25N 35°34' E 140°04'0 0.0
2018-Jul-20 12:00N 35°34' E 140°04'2 1.9
2018-Jul-20 11:05N 35°34' E 140°02'110.6
2018-Jul-20 10:59N 35°33' E 140°01'612.4
2018-Jul-20 10:30N 35°31' E 139°55'713.3
2018-Jul-20 10:00N 35°26' E 139°49'612.7
2018-Jul-20 09:30N 35°21' E 139°45'612.1
2018-Jul-20 09:00N 35°15' E 139°47'713.2
2018-Jul-20 08:30N 35°08' E 139°46'612.7
2018-Jul-20 08:00N 35°03' E 139°43'714.1
2018-Jul-20 07:30N 34°58' E 139°36'23211.2
2018-Jul-19 10:50N 33°45' E 135°09'511.9
2018-Jul-19 10:22N 33°49' E 135°04'511.7
2018-Jul-19 09:59N 33°53' E 135°01'612.2
2018-Jul-19 09:28N 33°59' E 135°01'511.6
2018-Jul-19 09:00N 34°05' E 134°60'611.6
2018-Jul-19 08:30N 34°11' E 134°59'713.1
2018-Jul-19 08:00N 34°17' E 134°59'611.6
2018-Jul-19 07:30N 34°23' E 135°00'612.1
2018-Jul-19 07:00N 34°28' E 135°03'611.8
2018-Jul-19 06:30N 34°34' E 135°06'510.3
2018-Jul-19 06:00N 34°38' E 135°08'0 0.1
2018-Jul-19 05:25N 34°39' E 135°08'0 0.0
2018-Jul-19 04:49N 34°39' E 135°08'0 0.0
2018-Jul-19 04:25N 34°39' E 135°08'0 0.0
2018-Jul-19 03:55N 34°39' E 135°08'0 0.0
2018-Jul-19 03:25N 34°39' E 135°08'0 0.0
2018-Jul-19 03:00N 34°39' E 135°08'0 0.3
2018-Jul-19 02:30N 34°38' E 135°08'1 2.6
2018-Jul-19 02:01N 34°37' E 135°08'4 8.2
2018-Jul-19 01:31N 34°34' E 135°05'2 4.6
2018-Jul-19 01:01N 34°33' E 135°07'1 2.0
2018-Jul-19 00:31N 34°34' E 135°07'713.1
2018-Jul-18 23:59N 34°37' E 134°60'712.6
2018-Jul-18 23:27N 34°34' E 134°53'511.0
2018-Jul-18 23:00N 34°32' E 134°47'510.5
2018-Jul-18 22:30N 34°30' E 134°41'612.9
2018-Jul-18 22:00N 34°28' E 134°34'713.2
2018-Jul-18 21:30N 34°25' E 134°27'713.1
2018-Jul-18 21:00N 34°24' E 134°19'  
2018-Jul-15 21:15N 34°59' E 129°26'  
2018-Jul-13 04:24N 34°52' E 139°20'3 7.8
2018-Jul-13 03:57N 34°54' E 139°23'3 8.0
2018-Jul-13 03:31N 34°56' E 139°27'4 8.8
2018-Jul-13 03:00N 34°59' E 139°31'510.3
2018-Jul-13 02:31N 35°02' E 139°36'611.3
2018-Jul-13 02:00N 35°07' E 139°41'612.8
2018-Jul-13 01:31N 35°11' E 139°45'611.8
2018-Jul-13 01:01N 35°17' E 139°45'611.4
2018-Jul-13 00:31N 35°23' E 139°42'612.2
2018-Jul-13 00:01N 35°27' E 139°47'4 7.2
2018-Jul-12 23:31N 35°31' E 139°46'1 1.6
2018-Jul-12 22:59N 35°31' E 139°45'0 0.0
2018-Jul-12 22:23N 35°31' E 139°45'0 0.0
2018-Jul-12 20:23N 35°31' E 139°45'0 0.0
2018-Jul-12 16:47N 35°31' E 139°45'0 0.0
2018-Jul-12 13:59N 35°31' E 139°45'0 0.0
2018-Jul-12 11:05N 35°31' E 139°45'0 0.0
2018-Jul-12 10:47N 35°31' E 139°45'0 0.0
2018-Jul-12 03:39N 35°31' E 139°45'0 0.8
2018-Jul-12 03:30N 35°31' E 139°45'2 3.4
2018-Jul-12 03:00N 35°30' E 139°43'2 4.8
2018-Jul-12 02:31N 35°28' E 139°45'1 2.4
2018-Jul-12 01:55N 35°29' E 139°46'0 0.0
2018-Jul-12 01:28N 35°29' E 139°46'0 0.0
2018-Jul-12 00:58N 35°29' E 139°46'0 0.0
2018-Jul-12 00:25N 35°29' E 139°46'0 0.0
2018-Jul-11 23:58N 35°29' E 139°46'0 0.0
2018-Jul-11 23:28N 35°29' E 139°46'0 0.0
2018-Jul-11 22:58N 35°29' E 139°46'0 0.0
2018-Jul-11 22:28N 35°29' E 139°46'0 0.0
2018-Jul-11 21:55N 35°29' E 139°46'0 0.0
2018-Jul-11 21:28N 35°29' E 139°46'0 0.0
2018-Jul-11 20:58N 35°29' E 139°46'0 0.0
2018-Jul-11 20:28N 35°29' E 139°46'0 0.0
2018-Jul-11 19:58N 35°29' E 139°46'0 0.0
2018-Jul-11 19:28N 35°29' E 139°46'0 1.0
2018-Jul-11 19:00N 35°29' E 139°47'4 7.4
2018-Jul-11 18:30N 35°25' E 139°47'510.5
2018-Jul-11 18:00N 35°20' E 139°44'611.8
2018-Jul-11 17:30N 35°15' E 139°47'612.6
2018-Jul-11 17:00N 35°08' E 139°47'612.1
2018-Jul-11 16:30N 35°02' E 139°44'610.9
2018-Jul-11 15:59N 34°57' E 139°44'510.8
2018-Jul-11 15:30N 34°52' E 139°46'6 1.1
2018-Jul-11 09:55N 34°46' E 139°45'614.5
2018-Jul-11 09:31N 34°51' E 139°44'814.6
2018-Jul-11 09:00N 34°58' E 139°41'612.3
2018-Jul-11 08:31N 35°04' E 139°42'612.6
2018-Jul-11 08:01N 35°10' E 139°45'612.0
2018-Jul-11 07:31N 35°16' E 139°46'611.9
2018-Jul-11 07:01N 35°21' E 139°42'611.1
2018-Jul-11 06:31N 35°26' E 139°46'4 8.6
2018-Jul-11 06:00N 35°30' E 139°47'2 3.3
2018-Jul-11 05:30N 35°31' E 139°46'0 0.0
2018-Jul-10 23:46N 35°31' E 139°46'0 0.2
2018-Jul-10 23:30N 35°32' E 139°46'3 6.5
2018-Jul-10 23:00N 35°29' E 139°43'2 3.3
2018-Jul-10 22:29N 35°28' E 139°44'0 0.1
2018-Jul-10 21:56N 35°28' E 139°44'0 0.0
2018-Jul-10 21:29N 35°28' E 139°44'0 0.0
2018-Jul-10 20:59N 35°28' E 139°44'0 0.0
2018-Jul-10 20:29N 35°28' E 139°44'0 0.0
2018-Jul-10 19:59N 35°28' E 139°44'0 0.0
2018-Jul-10 19:29N 35°28' E 139°44'0 0.1
2018-Jul-10 18:59N 35°28' E 139°44'0 0.1
2018-Jul-10 18:29N 35°28' E 139°44'0 0.0
2018-Jul-10 17:59N 35°28' E 139°44'0 0.1
2018-Jul-10 17:29N 35°28' E 139°44'0 0.0
2018-Jul-10 16:59N 35°28' E 139°44'0 0.0
2018-Jul-10 16:30N 35°28' E 139°44'0 0.1
2018-Jul-10 16:00N 35°28' E 139°44'0 0.1
2018-Jul-10 15:31N 35°28' E 139°44'0 0.0
2018-Jul-10 15:01N 35°28' E 139°44'0 0.2
2018-Jul-10 14:31N 35°28' E 139°44'4 7.2
2018-Jul-10 14:00N 35°26' E 139°47'  

Dump ship's entire track history